Data for 09/20/2007

Time Sea-Level Adjusted Pressure Absolute Pressure Temperature Relative Humidity Dew Point   
(mb) (inHg) (mb) (inHg) (C) (F) (%) (C) (F)
00:05 1018 30.06 848 25.04 5.2 41.3 96 4.5 40.2
00:10 1019 30.09 848 25.04 5.3 41.5 96 4.6 40.4
00:15 1018 30.06 848 25.04 5.4 41.6 95 4.7 40.4
00:20 1018 30.06 848 25.04 5.2 41.4 96 4.6 40.4
00:25 1018 30.06 847 25.01 5.2 41.3 97 4.7 40.4
00:30 1018 30.06 847 25.01 5.2 41.4 97 4.7 40.5
00:35 1018 30.06 847 25.01 5.2 41.4 97 4.8 40.6
00:40 1018 30.06 847 25.01 5.2 41.4 97 4.7 40.5
00:45 1018 30.06 847 25.01 5.3 41.5 97 4.8 40.7
00:50 1018 30.06 847 25.01 5.3 41.6 96 4.8 40.6
00:55 1018 30.06 847 25.01 5.3 41.6 96 4.8 40.6
01:00 1018 30.06 847 25.01 5.4 41.6 96 4.8 40.6
01:05 1018 30.06 847 25.01 5.3 41.6 96 4.8 40.6
01:10 1018 30.06 847 25.01 5.3 41.6 96 4.8 40.6
01:15 1018 30.06 847 25.01 5.3 41.5 96 4.7 40.5
01:20 1018 30.06 847 25.01 5.4 41.8 96 4.8 40.7
01:25 1018 30.06 847 25.01 5.7 42.2 94 4.8 40.7
01:30 1018 30.06 847 25.01 5.9 42.5 94 5 40.9
01:35 1018 30.06 847 25.01 5.8 42.4 95 5 41
01:40 1018 30.06 847 25.01 5.8 42.4 94 4.9 40.9
01:45 1018 30.06 847 25.01 5.8 42.4 94 4.9 40.9
01:50 1018 30.06 847 25.01 5.9 42.6 94 5 40.9
01:55 1018 30.06 847 25.01 5.9 42.7 93 4.9 40.9
02:00 1018 30.06 847 25.01 5.7 42.2 95 4.9 40.8
02:05 1018 30.06 847 25.01 5.5 41.9 94 4.7 40.4
02:10 1018 30.06 847 25.01 5.5 41.9 94 4.6 40.2
02:15 1018 30.06 847 25.01 5.4 41.8 94 4.5 40.1
02:20 1018 30.06 847 25.01 5.5 41.8 93 4.4 39.9
02:25 1018 30.06 847 25.01 5.4 41.7 93 4.4 39.9
02:30 1018 30.06 847 25.01 5.3 41.5 94 4.4 39.9
02:35 1018 30.06 847 25.01 5.2 41.3 95 4.3 39.8
02:40 1018 30.06 847 25.01 5.1 41.1 93 4.1 39.3
02:45 1018 30.06 847 25.01 4.9 40.8 93 3.9 39
02:50 1018 30.06 847 25.01 4.8 40.6 93 3.7 38.6
02:55 1018 30.06 847 25.01 4.6 40.3 93 3.6 38.5
03:00 1018 30.06 847 25.01 4.7 40.4 92 3.6 38.4
03:05 1018 30.06 847 25.01 4.6 40.4 92 3.5 38.3
03:10 1018 30.06 847 25.01 4.7 40.4 92 3.5 38.4
03:15 1018 30.06 847 25.01 4.7 40.4 92 3.5 38.3
03:20 1018 30.06 847 25.01 4.6 40.3 93 3.5 38.3
03:25 1018 30.06 847 25.01 4.5 40.2 93 3.5 38.3
03:30 1018 30.06 847 25.01 4.6 40.2 93 3.5 38.3
03:35 1018 30.06 847 25.01 4.6 40.3 93 3.5 38.4
03:40 1018 30.06 847 25.01 4.5 40.1 92 3.4 38
03:45 1018 30.06 847 25.01 4.5 40.1 93 3.4 38.1
03:50 1018 30.06 847 25.01 4.4 40 92 3.3 38
03:55 1018 30.06 847 25.01 4.5 40.1 92 3.4 38.1
04:00 1018 30.06 847 25.01 4.5 40.1 92 3.3 38
04:05 1018 30.06 847 25.01 4.5 40.1 93 3.4 38.2
04:10 1018 30.06 847 25.01 4.5 40.1 93 3.5 38.2
04:15 1018 30.06 847 25.01 4.4 40 93 3.4 38.2
04:20 1018 30.06 847 25.01 4.3 39.8 94 3.4 38.2
04:25 1017 30.03 847 25.01 4.3 39.7 95 3.5 38.3
04:30 1017 30.03 846 24.98 4.3 39.8 94 3.4 38.2
04:35 1017 30.03 847 25.01 4 39.2 96 3.4 38.1
04:40 1017 30.03 847 25.01 3.8 38.8 97 3.3 37.9
04:45 1017 30.03 847 25.01 4 39.1 96 3.4 38.2
04:50 1017 30.03 847 25.01 4 39.2 95 3.4 38
04:55 1017 30.03 846 24.98 3.9 39.1 96 3.3 38
05:00 1017 30.03 846 24.98 4 39.2 95 3.3 37.9
05:05 1017 30.03 846 24.98 3.9 39 96 3.3 37.9
05:10 1017 30.03 846 24.98 3.9 38.9 97 3.4 38.1
05:15 1017 30.03 846 24.98 3.9 39 97 3.5 38.3
05:20 1017 30.03 846 24.98 4 39.2 97 3.5 38.4
05:25 1017 30.03 846 24.98 4 39.2 97 3.5 38.4
05:30 1017 30.03 846 24.98 4.1 39.3 97 3.6 38.5
05:35 1017 30.03 846 24.98 4.1 39.5 97 3.7 38.6
05:40 1017 30.03 846 24.98 4.1 39.4 97 3.6 38.5
05:45 1016 30 846 24.98 4.2 39.5 96 3.6 38.5
05:50 1016 30 846 24.98 4.3 39.7 96 3.7 38.7
05:55 1016 30 845 24.95 4.3 39.7 96 3.8 38.8
06:00 1016 30 845 24.95 4.3 39.8 96 3.8 38.8
06:05 1016 30 845 24.95 4.4 39.9 96 3.8 38.8
06:10 1016 30 845 24.95 4.5 40 96 3.8 38.9
06:15 1016 30 845 24.95 4.4 40 96 3.9 39
06:20 1016 30 845 24.95 4.4 40 96 3.9 39
06:25 1016 30 845 24.95 4.5 40.1 96 4 39.1
06:30 1016 30 845 24.95 4.7 40.4 95 3.9 39.1
06:35 1016 30 845 24.95 4.8 40.6 94 4 39.2
06:40 1016 30 845 24.95 4.9 40.8 94 3.9 39.1
06:45 1016 30 846 24.98 5.1 41.2 93 4 39.2
06:50 1016 30 845 24.95 5.1 41.2 93 4.1 39.4
06:55 1016 30 845 24.95 5 40.9 94 4 39.2
07:00 1016 30 845 24.95 4.9 40.8 94 4 39.3
07:05 1016 30 845 24.95 5 40.9 94 4 39.3
07:10 1016 30 845 24.95 4.9 40.8 94 4.1 39.4
07:15 1016 30 845 24.95 4.9 40.8 94 4 39.3
07:20 1016 30 845 24.95 5 41 94 4.1 39.3
07:25 1016 30 845 24.95 5.1 41.1 94 4.1 39.4
07:30 1016 30 845 24.95 5.1 41.2 94 4.2 39.6
07:35 1016 30 845 24.95 5.2 41.3 94 4.2 39.6
07:40 1016 30 846 24.98 5.4 41.7 92 4.2 39.5
07:45 1016 30 846 24.98 5.6 42.1 91 4.3 39.7
07:50 1016 30 846 24.98 5.7 42.3 89 4.1 39.4
07:55 1016 30 846 24.98 5.8 42.4 90 4.2 39.6
08:00 1016 30 846 24.98 5.6 42.2 91 4.4 39.9
08:05 1016 30 846 24.98 5.7 42.3 91 4.4 39.9
08:10 1016 30 846 24.98 5.6 42.1 92 4.5 40.1
08:15 1016 30 846 24.98 5.6 42.1 91 4.2 39.6
08:20 1016 30 846 24.98 5.7 42.3 91 4.4 39.9
08:25 1016 30 846 24.98 5.8 42.5 91 4.4 40
08:30 1016 30 846 24.98 6 42.7 91 4.5 40.2
08:35 1016 30 846 24.98 5.9 42.7 90 4.4 40
08:40 1016 30 845 24.95 6 42.9 90 4.5 40.2
08:45 1016 30 845 24.95 6.2 43.2 89 4.6 40.3
08:50 1016 30 845 24.95 6.3 43.3 90 4.7 40.5
08:55 1016 30 845 24.95 6.4 43.6 89 4.7 40.5
09:00 1016 30 845 24.95 6.6 43.9 88 4.8 40.7
09:05 1016 30 845 24.95 6.9 44.4 86 4.7 40.4
09:10 1016 30 845 24.95 7.1 44.7 86 4.9 40.8
09:15 1016 30 845 24.95 7.3 45.1 84 4.8 40.6
09:20 1016 30 845 24.95 7.3 45.1 84 4.8 40.7
09:25 1016 30 845 24.95 7.5 45.4 82 4.7 40.4
09:30 1016 30 845 24.95 7.8 46 83 5 41
09:35 1015 29.97 845 24.95 8.2 46.7 82 5.2 41.4
09:40 1015 29.97 845 24.95 8.5 47.3 78 4.9 40.8
09:45 1015 29.97 845 24.95 8.8 47.8 79 5.4 41.8
09:50 1015 29.97 844 24.92 9 48.1 76 4.9 40.8
09:55 1015 29.97 844 24.92 8.7 47.7 77 4.9 40.8
10:00 1015 29.97 844 24.92 8.6 47.5 75 4.4 40
10:05 1015 29.97 844 24.92 9.2 48.6 75 5 41
10:10 1015 29.97 844 24.92 10 49.9 71 5 41.1
10:15 1015 29.97 844 24.92 9.9 49.7 71 4.9 40.9
10:20 1015 29.97 844 24.92 9.4 49 74 5.1 41.2
10:25 1015 29.97 844 24.92 9 48.3 73 4.5 40
10:30 1015 29.97 844 24.92 9.4 48.8 74 5 40.9
10:35 1015 29.97 844 24.92 9.9 49.9 69 4.6 40.2
10:40 1015 29.97 844 24.92 10.5 50.9 68 4.9 40.9
10:45 1015 29.97 844 24.92 10.2 50.3 72 5.3 41.6
10:50 1015 29.97 844 24.92 9.8 49.6 71 4.9 40.7
10:55 1015 29.97 844 24.92 10.1 50.1 69 4.7 40.4
11:00 1015 29.97 844 24.92 11 51.8 66 4.9 40.8
11:05 1015 29.97 844 24.92 10.7 51.3 71 5.7 42.3
11:10 1015 29.97 844 24.92 10.5 50.9 71 5.5 41.9
11:15 1015 29.97 844 24.92 10.6 51.2 69 5.3 41.6
11:20 1015 29.97 844 24.92 11.4 52.4 68 5.7 42.2
11:25 1015 29.97 844 24.92 11.2 52.2 65 4.9 40.7
11:30 1015 29.97 844 24.92 12 53.5 61 4.6 40.3
11:35 1015 29.97 844 24.92 12.3 54.2 63 5.6 42.2
11:40 1015 29.97 844 24.92 11.3 52.4 66 5.3 41.6
11:45 1015 29.97 844 24.92 11.7 53 64 5.1 41.2
11:50 1015 29.97 844 24.92 11.5 52.7 64 5 41.1
11:55 1014 29.94 844 24.92 12.3 54.1 61 5 40.9
12:00 1014 29.94 843 24.89 12.3 54.2 61 5.2 41.3
12:05 1014 29.94 843 24.89 12.9 55.2 61 5.6 42
12:10 1014 29.94 843 24.89 12.9 55.1 60 5.3 41.6
12:15 1014 29.94 843 24.89 13 55.4 60 5.4 41.8
12:20 1014 29.94 843 24.89 13.2 55.7 59 5.4 41.8
12:25 1014 29.94 843 24.89 13.5 56.2 59 5.8 42.4
12:30 1014 29.94 843 24.89 12.5 54.5 65 6.2 43.1
12:35 1014 29.94 843 24.89 11.3 52.4 66 5.1 41.3
12:40 1014 29.94 843 24.89 11.5 52.7 65 5.2 41.3
12:45 1014 29.94 843 24.89 12.7 54.8 59 4.8 40.7
12:50 1014 29.94 843 24.89 14 57.3 58 5.9 42.6
12:55 1013 29.91 843 24.89 14.1 57.4 56 5.5 41.9
13:00 1013 29.91 843 24.89 14.4 57.9 55 5.7 42.2
13:05 1013 29.91 842 24.86 14.1 57.4 58 6 42.8
13:10 1013 29.91 842 24.86 13.9 57.1 55 5.2 41.4
13:15 1013 29.91 842 24.86 14.9 58.9 52 5.2 41.4
13:20 1013 29.91 842 24.86 15 59.1 53 5.7 42.2
13:25 1013 29.91 842 24.86 14.7 58.5 55 5.8 42.5
13:30 1013 29.91 842 24.86 15.2 59.3 51 5.2 41.3
13:35 1012 29.88 842 24.86 15.1 59.2 55 6.1 43.1
13:40 1012 29.88 842 24.86 15.5 60 50 5.3 41.6
13:45 1012 29.88 841 24.83 15.9 60.7 51 5.9 42.6
13:50 1012 29.88 841 24.83 15.9 60.6 52 6 42.8
13:55 1012 29.88 841 24.83 16.7 62.1 48 5.8 42.4
14:00 1012 29.88 841 24.83 17.3 63.1 47 6 42.7
14:05 1012 29.88 841 24.83 16.3 61.4 50 6 42.9
14:10 1012 29.88 841 24.83 16 60.7 53 6.5 43.8
14:15 1011 29.85 841 24.83 16.1 60.9 49 5.4 41.7
14:20 1011 29.85 841 24.83 17 62.6 46 5.3 41.5
14:25 1011 29.85 840 24.81 17.5 63.5 46 5.8 42.4
14:30 1011 29.85 840 24.81 18.3 65 43 5.5 42
14:35 1011 29.85 840 24.81 18.8 65.9 41 5.5 41.9
14:40 1011 29.85 840 24.81 19.3 66.7 42 6 42.8
14:45 1011 29.85 840 24.81 18.9 66 42 6 42.7
14:50 1011 29.85 840 24.81 18.5 65.2 44 6.2 43.2
14:55 1011 29.85 840 24.81 18.1 64.6 43 5.6 42.1
15:00 1010 29.83 840 24.81 19.1 66.3 41 5.7 42.3
15:05 1010 29.83 840 24.81 19.4 66.9 40 5.6 42.1
15:10 1010 29.83 840 24.81 19.8 67.6 40 6 42.8
15:15 1010 29.83 839 24.78 19.9 67.8 39 5.8 42.4
15:20 1010 29.83 839 24.78 19.8 67.6 39 5.6 42
15:25 1010 29.83 839 24.78 20.1 68.1 39 5.8 42.5
15:30 1010 29.83 839 24.78 19.1 66.4 42 6 42.9
15:35 1010 29.83 839 24.78 19 66.2 42 5.9 42.6
15:40 1010 29.83 839 24.78 19.3 66.8 40 5.4 41.6
15:45 1010 29.83 839 24.78 19.5 67.1 39 5.5 41.8
15:50 1010 29.83 839 24.78 19.9 67.7 38 5.3 41.6
15:55 1010 29.83 839 24.78 20.6 69 37 5.4 41.7
16:00 1010 29.83 839 24.78 19.9 67.8 41 6.3 43.4
16:05 1010 29.83 839 24.78 19.5 67 41 6.1 43
16:10 1010 29.83 839 24.78 19.6 67.2 40 5.7 42.2
16:15 1009 29.8 839 24.78 19.3 66.7 41 5.9 42.6
16:20 1009 29.8 839 24.78 18.5 65.3 44 6.1 43
16:25 1009 29.8 839 24.78 18.3 64.9 43 5.6 42.1
16:30 1009 29.8 838 24.75 18.2 64.7 43 5.4 41.7
16:35 1009 29.8 838 24.75 18.1 64.5 42 5.2 41.4
16:40 1009 29.8 838 24.75 18.1 64.6 43 5.6 42.1
16:45 1009 29.8 838 24.75 18.2 64.7 44 5.8 42.4
16:50 1009 29.8 838 24.75 18.5 65.3 42 5.5 41.9
16:55 1009 29.8 838 24.75 18.6 65.4 42 5.7 42.2
17:00 1009 29.8 838 24.75 18.1 64.5 44 5.7 42.3
17:05 1009 29.8 838 24.75 18.1 64.5 44 5.6 42.1
17:10 1009 29.8 838 24.75 18.2 64.8 44 5.8 42.5
17:15 1009 29.8 838 24.75 18.1 64.7 44 5.9 42.6
17:20 1009 29.8 838 24.75 18 64.4 45 5.9 42.7
17:25 1009 29.8 838 24.75 17.9 64.3 45 5.8 42.4
17:30 1009 29.8 838 24.75 18 64.3 43 5.3 41.6
17:35 1009 29.8 838 24.75 18.1 64.5 44 5.7 42.3
17:40 1009 29.8 838 24.75 18.3 64.9 43 5.7 42.3
17:45 1009 29.8 838 24.75 18.5 65.2 44 6.1 43
17:50 1009 29.8 838 24.75 18.7 65.6 42 5.6 42
17:55 1009 29.8 838 24.75 18.7 65.7 40 5.1 41.2
18:00 1009 29.8 838 24.75 18.7 65.7 41 5.3 41.5
18:05 1009 29.8 838 24.75 18.7 65.7 40 4.8 40.7
18:10 1009 29.8 838 24.75 18.7 65.7 41 5.5 41.9
18:15 1009 29.8 838 24.75 18.6 65.5 40 5 41
18:20 1009 29.8 838 24.75 18.6 65.4 42 5.5 42
18:25 1009 29.8 838 24.75 18.1 64.5 42 5.2 41.3
18:30 1009 29.8 838 24.75 18 64.3 46 6.2 43.2
18:35 1009 29.8 838 24.75 18 64.4 45 5.9 42.6
18:40 1009 29.8 838 24.75 17.9 64.2 45 6 42.9
18:45 1009 29.8 838 24.75 17.5 63.6 48 6.4 43.5
18:50 1009 29.8 838 24.75 17.6 63.6 47 6.4 43.5
18:55 1009 29.8 838 24.75 17.6 63.6 48 6.5 43.7
19:00 1009 29.8 838 24.75 17 62.6 50 6.7 44
19:05 1009 29.8 838 24.75 15.8 60.5 55 7 44.5
19:10 1009 29.8 838 24.75 15.6 60.1 54 6.4 43.6
19:15 1009 29.8 838 24.75 15.3 59.6 54 6.1 42.9
19:20 1009 29.8 838 24.75 15.1 59.2 51 5 41.1
19:25 1009 29.8 838 24.75 15.1 59.1 51 5 41
19:30 1009 29.8 838 24.75 15 59 49 4.4 40
19:35 1009 29.8 839 24.78 14.9 58.8 50 4.7 40.4
19:40 1010 29.83 839 24.78 14.6 58.3 51 4.8 40.6
19:45 1010 29.83 839 24.78 14.3 57.7 54 5.2 41.4
19:50 1009 29.8 839 24.78 14.3 57.7 54 5.2 41.4
19:55 1009 29.8 838 24.75 14.2 57.6 51 4.4 39.9
20:00 1009 29.8 839 24.78 14.5 58.2 52 5 40.9
20:05 1010 29.83 839 24.78 14.8 58.6 52 5.1 41.2
20:10 1010 29.83 839 24.78 14.9 58.8 53 5.5 41.9
20:15 1010 29.83 839 24.78 14.6 58.3 54 5.4 41.7
20:20 1010 29.83 839 24.78 14.6 58.3 52 4.9 40.9
20:25 1010 29.83 839 24.78 14.9 58.8 55 5.9 42.6
20:30 1011 29.85 840 24.81 14.5 58.1 55 5.7 42.3
20:35 1011 29.85 840 24.81 12.9 55.3 68 7.2 45
20:40 1011 29.85 840 24.81 10.8 51.4 73 6.2 43.2
20:45 1011 29.85 841 24.83 10.1 50.2 75 6 42.7
20:50 1012 29.88 841 24.83 9.9 49.8 76 5.8 42.5
20:55 1012 29.88 841 24.83 9.9 49.8 76 5.8 42.4
21:00 1012 29.88 841 24.83 9.8 49.6 74 5.4 41.8
21:05 1012 29.88 841 24.83 9.8 49.6 73 5.2 41.4
21:10 1013 29.91 842 24.86 9.8 49.7 75 5.6 42.2
21:15 1013 29.91 842 24.86 9.9 49.9 73 5.3 41.5
21:20 1013 29.91 842 24.86 10 50 72 5.2 41.3
21:25 1013 29.91 842 24.86 10 50.1 73 5.5 41.8
21:30 1013 29.91 842 24.86 10.1 50.2 74 5.7 42.2
21:35 1013 29.91 843 24.89 10.2 50.3 72 5.4 41.7
21:40 1014 29.94 843 24.89 10.2 50.4 70 5 40.9
21:45 1014 29.94 843 24.89 10.2 50.3 72 5.5 41.8
21:50 1014 29.94 843 24.89 10.1 50.2 75 6 42.7
21:55 1014 29.94 843 24.89 10 50 77 6.1 42.9
22:00 1014 29.94 843 24.89 9.9 49.8 81 6.7 44.1
22:05 1014 29.94 843 24.89 9.8 49.6 78 6.2 43.2
22:10 1014 29.94 843 24.89 9.6 49.3 74 5.3 41.5
22:15 1014 29.94 843 24.89 9.4 48.9 73 4.9 40.8
22:20 1014 29.94 843 24.89 9 48.1 74 4.6 40.2
22:25 1014 29.94 843 24.89 8.8 47.9 75 4.6 40.3
22:30 1014 29.94 843 24.89 8.8 47.8 76 4.8 40.6
22:35 1014 29.94 843 24.89 8.8 47.8 80 5.6 42
22:40 1014 29.94 843 24.89 8.6 47.5 77 4.8 40.6
22:45 1014 29.94 843 24.89 8.5 47.3 79 5.1 41.2
22:50 1014 29.94 844 24.92 8.4 47 82 5.4 41.7
22:55 1014 29.94 844 24.92 8.2 46.7 81 5.1 41.2
23:00 1015 29.97 844 24.92 8.4 47.1 85 6 42.8
23:05 1015 29.97 844 24.92 8.5 47.2 83 5.8 42.5
23:10 1015 29.97 844 24.92 8.4 47 84 5.7 42.3
23:15 1015 29.97 844 24.92 7.8 46.1 87 5.8 42.5
23:20 1015 29.97 845 24.95 7.4 45.4 90 5.9 42.7
23:25 1015 29.97 845 24.95 7.5 45.4 90 5.9 42.6
23:30 1015 29.97 845 24.95 7.4 45.4 89 5.7 42.2
23:35 1015 29.97 845 24.95 7.4 45.3 90 5.8 42.5
23:40 1015 29.97 845 24.95 7.3 45.1 90 5.7 42.3
23:45 1015 29.97 845 24.95 7.2 45 89 5.5 42
23:50 1015 29.97 845 24.95 7.1 44.8 91 5.8 42.4
23:55 1015 29.97 845 24.95 7.1 44.7 88 5.2 41.4
24:00 1015 29.97 845 24.95 7.1 44.7 90 5.5 41.9